Time;durP1;ratioP1;P1;durP2;ratioP2;P2;SDS_P1;SDS_P2;PMS_P1;PMS_P2;Temp;Humidity;BMP_temperature;BMP_pressure;BME280_temperature;BME280_humidity;BME280_pressure;Samples;Min_cycle;Max_cycle;Signal;HPM_P1;HPM_P2
2023/02/22 00:00:48;;;;;;;;;;;;;;;10.21;100.00;99325.09;5016984;28;19926;-52
2023/02/22 00:03:11;;;;;;;;;;;;;;;10.18;100.00;99344.94;4979554;28;20016;-53
2023/02/22 00:05:40;;;;;;;;;;;;;;;10.19;100.00;99369.78;4979357;28;20072;-51
2023/02/22 00:08:08;;;;;;;;;;;;;;;10.22;100.00;99374.88;4978290;28;20014;-52
2023/02/22 00:10:33;;;;;;;;;;;;;;;10.77;100.00;99385.50;4979789;28;19921;-53
2023/02/22 00:12:58;;;;;;;;;;;;;;;11.03;100.00;99359.03;4979540;28;20311;-52
2023/02/22 00:15:27;;;;;;;;;;;;;;;10.43;100.00;99320.28;4979320;28;20060;-51
2023/02/22 00:17:53;;;;;;;;;;;;;;;9.89;100.00;99322.47;4979528;28;19928;-53
2023/02/22 00:20:18;;;;;;;;;;;;;;;9.47;100.00;99336.28;4979425;28;19952;-51
2023/02/22 00:22:50;;;;;;;;;;;;;;;9.26;100.00;99358.19;4979773;28;20370;-51
2023/02/22 00:25:18;;;;;;;;;;;;;;;9.50;100.00;99386.78;4979375;28;20336;-51
2023/02/22 00:27:52;;;;;;;;;;;;;;;9.42;100.00;99395.53;4978265;28;20008;-52
2023/02/22 00:30:19;;;;;;;;;;;;;;;9.04;100.00;99398.84;4997000;28;20406;-53
2023/02/22 00:32:45;;;;;;;;;;;;;;;9.20;100.00;99420.81;4979100;28;20008;-53
2023/02/22 00:35:11;;;;;;;;;;;;;;;9.19;100.00;99428.53;4978845;28;20481;-51
2023/02/22 00:37:40;;;;;;;;;;;;;;;8.13;100.00;99413.22;4978443;28;19932;-52
2023/02/22 00:40:07;;;;;;;;;;;;;;;9.72;100.00;99497.78;5012720;28;20888;-52
2023/02/22 00:42:32;;;;;;;;;;;;;;;10.09;100.00;99486.69;4978705;28;20036;-53
2023/02/22 00:44:57;;;;;;;;;;;;;;;10.67;100.00;99469.88;4979423;28;19996;-51
2023/02/22 00:47:25;;;;;;;;;;;;;;;10.76;100.00;99420.72;4978529;28;19922;-51
2023/02/22 00:49:50;;;;;;;;;;;;;;;10.33;100.00;99362.59;4979801;28;19918;-52
2023/02/22 00:52:15;;;;;;;;;;;;;;;10.35;100.00;99341.94;4979142;28;20107;-52
2023/02/22 00:54:40;;;;;;;;;;;;;;;10.01;100.00;99312.75;4978882;28;19922;-53
2023/02/22 00:57:06;;;;;;;;;;;;;;;9.89;100.00;99320.75;4983443;28;19921;-52
2023/02/22 00:59:31;;;;;;;;;;;;;;;9.72;100.00;99310.03;5017211;28;20140;-51
2023/02/22 01:01:57;;;;;;;;;;;;;;;9.49;100.00;99298.53;4986311;28;20275;-53
2023/02/22 01:04:22;;;;;;;;;;;;;;;10.18;100.00;99314.88;4979063;28;20551;-53
2023/02/22 01:06:47;;;;;;;;;;;;;;;9.82;100.00;99296.06;4977064;28;19930;-53
2023/02/22 01:09:13;;;;;;;;;;;;;;;9.61;100.00;99298.25;4993122;28;19922;-52
2023/02/22 01:11:38;;;;;;;;;;;;;;;9.97;100.00;99305.97;4979426;28;20403;-52
2023/02/22 01:14:03;;;;;;;;;;;;;;;9.10;100.00;99275.44;4978317;28;19922;-53
2023/02/22 01:16:28;;;;;;;;;;;;;;;9.10;100.00;99295.97;4977940;28;19933;-53
2023/02/22 01:18:53;;;;;;;;;;;;;;;9.00;100.00;99304.75;4978582;28;19922;-50
2023/02/22 01:21:19;;;;;;;;;;;;;;;8.76;100.00;99311.22;4980359;28;19918;-51
2023/02/22 01:23:44;;;;;;;;;;;;;;;8.48;100.00;99322.00;4977817;28;19926;-50
2023/02/22 01:26:09;;;;;;;;;;;;;;;8.49;100.00;99340.84;4978350;28;19929;-50
2023/02/22 01:28:35;;;;;;;;;;;;;;;8.53;100.00;99350.16;4977645;28;20437;-50
2023/02/22 01:31:01;;;;;;;;;;;;;;;8.51;100.00;99351.94;4981245;28;19929;-51
2023/02/22 01:33:27;;;;;;;;;;;;;;;8.76;100.00;99372.88;5017269;28;20449;-50
2023/02/22 01:35:52;;;;;;;;;;;;;;;8.79;100.00;99363.38;4978263;28;20395;-50
2023/02/22 01:38:17;;;;;;;;;;;;;;;8.67;100.00;99348.19;4978270;28;20048;-51
2023/02/22 01:40:45;;;;;;;;;;;;;;;8.48;100.00;99342.53;4978044;28;19933;-50
2023/02/22 01:43:21;;;;;;;;;;;;;;;8.38;100.00;99336.69;5021145;28;20683;-51
2023/02/22 01:45:48;;;;;;;;;;;;;;;8.22;100.00;99340.41;4978025;28;19918;-50
2023/02/22 01:48:16;;;;;;;;;;;;;;;8.11;100.00;99347.44;4977947;28;19945;-50
2023/02/22 01:50:43;;;;;;;;;;;;;;;8.21;100.00;99351.56;5015344;28;20368;-51
2023/02/22 01:53:09;;;;;;;;;;;;;;;8.38;100.00;99367.50;4997043;28;20372;-50
2023/02/22 01:55:34;;;;;;;;;;;;;;;8.76;100.00;99353.16;4977865;28;19929;-52
2023/02/22 01:57:59;;;;;;;;;;;;;;;8.89;100.00;99327.22;4977650;28;20440;-50
2023/02/22 02:00:26;;;;;;;;;;;;;;;8.86;100.00;99304.19;5012211;28;20012;-50
2023/02/22 02:02:57;;;;;;;;;;;;;;;9.32;100.00;99293.78;4978266;28;19922;-51
2023/02/22 02:05:23;;;;;;;;;;;;;;;9.45;100.00;99265.22;5014657;28;20326;-50
2023/02/22 02:07:48;;;;;;;;;;;;;;;10.14;100.00;99232.66;4977629;28;19925;-53
2023/02/22 02:10:14;;;;;;;;;;;;;;;10.42;100.00;99207.03;5008731;28;19922;-50
2023/02/22 02:12:41;;;;;;;;;;;;;;;9.92;100.00;99152.59;4977834;28;20184;-53
2023/02/22 02:15:16;;;;;;;;;;;;;;;10.49;100.00;99148.47;5014742;28;20092;-50
2023/02/22 02:17:42;;;;;;;;;;;;;;;10.14;100.00;99127.13;4977482;28;19961;-50
2023/02/22 02:20:26;;;;;;;;;;;;;;;8.35;100.00;99104.97;4981223;28;20029;-50
2023/02/22 02:22:54;;;;;;;;;;;;;;;8.32;100.00;99146.91;4978428;28;20000;-50
2023/02/22 02:25:29;;;;;;;;;;;;;;;9.16;100.00;99198.19;4977456;28;20001;-51
2023/02/22 02:27:54;;;;;;;;;;;;;;;9.75;100.00;99212.22;4976533;28;19922;-51
2023/02/22 02:30:39;;;;;;;;;;;;;;;8.97;100.00;99196.94;4979253;28;19933;-51
2023/02/22 02:33:11;;;;;;;;;;;;;;;9.53;100.00;99217.88;4983523;28;19979;-50
2023/02/22 02:35:49;;;;;;;;;;;;;;;9.45;100.00;99208.69;4993048;28;19929;-50
2023/02/22 02:38:32;;;;;;;;;;;;;;;9.54;100.00;99185.31;4976931;28;20040;-50
2023/02/22 02:40:58;;;;;;;;;;;;;;;9.67;100.00;99168.72;4977860;28;19961;-51
2023/02/22 02:43:26;;;;;;;;;;;;;;;8.78;100.00;99153.69;4977865;28;19983;-50
2023/02/22 02:45:59;;;;;;;;;;;;;;;8.09;100.00;99154.22;4977354;28;20177;-51
2023/02/22 02:48:25;;;;;;;;;;;;;;;8.88;100.00;99204.84;4991843;28;19922;-51
2023/02/22 02:50:51;;;;;;;;;;;;;;;9.14;100.00;99224.81;4996461;28;19922;-50
2023/02/22 02:53:18;;;;;;;;;;;;;;;9.61;100.00;99215.97;4980272;28;19921;-50
2023/02/22 02:55:43;;;;;;;;;;;;;;;9.39;100.00;99182.22;5025286;28;20017;-50
2023/02/22 02:58:10;;;;;;;;;;;;;;;9.74;100.00;99171.94;4977491;28;19921;-50
2023/02/22 03:00:39;;;;;;;;;;;;;;;9.27;100.00;99143.13;4999029;28;19921;-50
2023/02/22 03:03:25;;;;;;;;;;;;;;;9.61;100.00;99132.84;4980345;28;19936;-52
2023/02/22 03:06:09;;;;;;;;;;;;;;;9.90;100.00;99128.66;4977495;28;19972;-51
2023/02/22 03:08:37;;;;;;;;;;;;;;;9.92;100.00;99112.31;4986061;28;20411;-49
2023/02/22 03:11:13;;;;;;;;;;;;;;;9.04;100.00;99100.88;4980426;28;19922;-49
2023/02/22 03:13:47;;;;;;;;;;;;;;;8.91;100.00;99114.88;4980451;28;20047;-52
2023/02/22 03:16:19;;;;;;;;;;;;;;;8.89;100.00;99138.00;4980351;28;20379;-52
2023/02/22 03:18:50;;;;;;;;;;;;;;;9.73;100.00;99152.25;4985062;28;19944;-51
2023/02/22 03:21:21;;;;;;;;;;;;;;;9.61;100.00;99138.84;4981181;28;20013;-50
2023/02/22 03:23:49;;;;;;;;;;;;;;;9.95;100.00;99132.78;4981876;28;19964;-52
2023/02/22 03:26:22;;;;;;;;;;;;;;;9.46;100.00;99113.50;4979855;28;19925;-53
2023/02/22 03:28:47;;;;;;;;;;;;;;;9.30;100.00;99107.06;5015308;28;19922;-50
2023/02/22 03:31:14;;;;;;;;;;;;;;;8.87;100.00;99103.84;5014154;28;19929;-52
2023/02/22 03:33:41;;;;;;;;;;;;;;;8.64;100.00;99140.28;5014169;28;19917;-51
2023/02/22 03:36:13;;;;;;;;;;;;;;;8.00;100.00;99162.09;4980843;28;20263;-53
2023/02/22 03:38:39;;;;;;;;;;;;;;;8.58;100.00;99214.88;4978719;28;19964;-50
2023/02/22 03:41:04;;;;;;;;;;;;;;;9.49;100.00;99243.69;5017552;28;19925;-52
2023/02/22 03:43:40;;;;;;;;;;;;;;;9.82;100.00;99224.88;4981193;28;19921;-50
2023/02/22 03:46:05;;;;;;;;;;;;;;;9.14;100.00;99222.22;5018430;28;20634;-50
2023/02/22 03:48:43;;;;;;;;;;;;;;;9.82;100.00;99247.19;5008141;28;19968;-51
2023/02/22 03:51:08;;;;;;;;;;;;;;;9.87;100.00;99211.91;4981777;28;19926;-52
2023/02/22 03:53:36;;;;;;;;;;;;;;;10.25;100.00;99198.00;4977706;28;20650;-53
2023/02/22 03:56:01;;;;;;;;;;;;;;;10.24;100.00;99164.59;4980218;28;19924;-50
2023/02/22 03:58:26;;;;;;;;;;;;;;;10.00;100.00;99141.22;5016839;28;19917;-50
2023/02/22 04:00:52;;;;;;;;;;;;;;;10.09;100.00;99139.31;4984972;28;19945;-50
2023/02/22 04:03:20;;;;;;;;;;;;;;;9.74;100.00;99128.22;4981923;28;19925;-50
2023/02/22 04:05:46;;;;;;;;;;;;;;;9.69;100.00;99138.63;4980239;28;20446;-52
2023/02/22 04:08:11;;;;;;;;;;;;;;;9.57;100.00;99139.78;4986328;28;19922;-50
2023/02/22 04:10:36;;;;;;;;;;;;;;;9.66;100.00;99171.31;4984960;28;19923;-50
2023/02/22 04:13:02;;;;;;;;;;;;;;;9.99;100.00;99196.16;5017103;28;19956;-52
2023/02/22 04:15:27;;;;;;;;;;;;;;;9.81;100.00;99191.50;4978151;28;19926;-53
2023/02/22 04:17:52;;;;;;;;;;;;;;;9.53;100.00;99197.31;4979048;28;19926;-52
2023/02/22 04:20:18;;;;;;;;;;;;;;;9.84;100.00;99207.69;4979367;28;20306;-50
2023/02/22 04:22:44;;;;;;;;;;;;;;;9.91;100.00;99208.38;4979390;28;19918;-51
2023/02/22 04:25:09;;;;;;;;;;;;;;;9.43;100.00;99211.28;4978328;28;20038;-53
2023/02/22 04:27:34;;;;;;;;;;;;;;;9.78;100.00;99232.69;4977759;28;19925;-50
2023/02/22 04:29:59;;;;;;;;;;;;;;;9.86;100.00;99241.09;4979600;28;19955;-51
2023/02/22 04:32:25;;;;;;;;;;;;;;;9.31;100.00;99243.25;4978837;28;19922;-53
2023/02/22 04:34:50;;;;;;;;;;;;;;;9.40;100.00;99280.75;4978675;28;19937;-51
2023/02/22 04:37:15;;;;;;;;;;;;;;;8.96;100.00;99286.00;4978520;28;19918;-51
2023/02/22 04:39:40;;;;;;;;;;;;;;;9.62;100.00;99346.25;4979147;28;19932;-50
2023/02/22 04:42:05;;;;;;;;;;;;;;;9.57;100.00;99362.63;4979318;28;19917;-50
2023/02/22 04:44:31;;;;;;;;;;;;;;;9.43;100.00;99366.34;4978897;28;19960;-50
2023/02/22 04:46:56;;;;;;;;;;;;;;;9.91;100.00;99393.59;4978303;28;20284;-50
2023/02/22 04:49:22;;;;;;;;;;;;;;;9.80;100.00;99386.09;4978060;28;20556;-51
2023/02/22 04:51:47;;;;;;;;;;;;;;;9.94;100.00;99378.06;4978850;28;19921;-50
2023/02/22 04:54:12;;;;;;;;;;;;;;;9.90;100.00;99355.91;4981902;28;19921;-51
2023/02/22 04:56:37;;;;;;;;;;;;;;;10.14;100.00;99348.47;4979205;28;19925;-51
2023/02/22 04:59:03;;;;;;;;;;;;;;;9.90;100.00;99329.31;4976881;28;20045;-50
2023/02/22 05:01:32;;;;;;;;;;;;;;;10.00;100.00;99315.34;4978667;28;20470;-50
2023/02/22 05:03:57;;;;;;;;;;;;;;;9.81;100.00;99304.66;4979343;28;19960;-51
2023/02/22 05:06:23;;;;;;;;;;;;;;;10.10;100.00;99295.38;4978975;28;20388;-50
2023/02/22 05:08:48;;;;;;;;;;;;;;;10.23;100.00;99277.00;4978381;28;20304;-53
2023/02/22 05:11:13;;;;;;;;;;;;;;;10.12;100.00;99265.28;4978481;28;20331;-51
2023/02/22 05:13:38;;;;;;;;;;;;;;;10.13;100.00;99229.25;4978393;28;20490;-51
2023/02/22 05:16:04;;;;;;;;;;;;;;;10.17;100.00;99235.13;4981963;28;19961;-50
2023/02/22 05:18:29;;;;;;;;;;;;;;;10.61;100.00;99236.53;4977507;28;19957;-53
2023/02/22 05:20:54;;;;;;;;;;;;;;;9.81;100.00;99191.50;5014566;28;19925;-51
2023/02/22 05:23:19;;;;;;;;;;;;;;;9.55;100.00;99226.41;4978150;28;19929;-50
2023/02/22 05:25:45;;;;;;;;;;;;;;;9.57;100.00;99276.06;4978834;28;19929;-50
2023/02/22 05:28:11;;;;;;;;;;;;;;;9.62;100.00;99297.38;4978258;28;19925;-52
2023/02/22 05:30:38;;;;;;;;;;;;;;;9.41;100.00;99313.28;4978656;28;19926;-51
2023/02/22 05:33:03;;;;;;;;;;;;;;;9.78;100.00;99351.03;4983550;28;19921;-51
2023/02/22 05:35:29;;;;;;;;;;;;;;;9.91;100.00;99362.72;4994791;28;19926;-53
2023/02/22 05:37:54;;;;;;;;;;;;;;;9.95;100.00;99359.19;4984377;28;20311;-50
2023/02/22 05:40:21;;;;;;;;;;;;;;;10.02;100.00;99371.03;4981170;28;19972;-52
2023/02/22 05:42:46;;;;;;;;;;;;;;;9.72;100.00;99349.44;4985501;28;20310;-51
2023/02/22 05:45:12;;;;;;;;;;;;;;;9.70;100.00;99355.50;4981869;28;19917;-50
2023/02/22 05:47:38;;;;;;;;;;;;;;;9.56;100.00;99346.38;4984370;28;20597;-51
2023/02/22 05:50:03;;;;;;;;;;;;;;;9.77;100.00;99352.75;4983042;28;20032;-51
2023/02/22 05:52:28;;;;;;;;;;;;;;;9.66;100.00;99359.03;4979835;28;19979;-52
2023/02/22 05:54:53;;;;;;;;;;;;;;;9.76;100.00;99368.22;4979775;28;19932;-53
2023/02/22 05:57:19;;;;;;;;;;;;;;;9.53;100.00;99350.72;4981350;28;19968;-51
2023/02/22 05:59:44;;;;;;;;;;;;;;;9.71;100.00;99355.44;4981524;28;19949;-50
2023/02/22 06:02:09;;;;;;;;;;;;;;;9.54;100.00;99358.41;4985208;28;19965;-53
2023/02/22 06:04:34;;;;;;;;;;;;;;;9.68;100.00;99363.25;4985033;28;19976;-50
2023/02/22 06:07:00;;;;;;;;;;;;;;;9.68;100.00;99359.84;4977453;28;19960;-51
2023/02/22 06:09:25;;;;;;;;;;;;;;;9.70;100.00;99358.09;5008583;28;20364;-50
2023/02/22 06:11:50;;;;;;;;;;;;;;;9.35;100.00;99349.41;4981295;28;19957;-53
2023/02/22 06:14:16;;;;;;;;;;;;;;;9.51;100.00;99352.47;4979679;28;20020;-50
2023/02/22 06:16:41;;;;;;;;;;;;;;;9.97;100.00;99365.16;4977725;28;19992;-51
2023/02/22 06:19:06;;;;;;;;;;;;;;;9.81;100.00;99349.22;4985522;28;19924;-54
2023/02/22 06:21:31;;;;;;;;;;;;;;;9.76;100.00;99343.34;4980937;28;19918;-51
2023/02/22 06:23:57;;;;;;;;;;;;;;;9.61;100.00;99326.53;4978342;28;20455;-51
2023/02/22 06:26:22;;;;;;;;;;;;;;;9.49;100.00;99303.69;4978287;28;20386;-52
2023/02/22 06:28:47;;;;;;;;;;;;;;;9.36;100.00;99312.56;4979440;28;19921;-51
2023/02/22 06:31:13;;;;;;;;;;;;;;;9.18;100.00;99319.78;4989141;28;19971;-52
2023/02/22 06:33:38;;;;;;;;;;;;;;;9.92;100.00;99359.28;4978654;28;20072;-52
2023/02/22 06:36:04;;;;;;;;;;;;;;;9.49;100.00;99329.41;4980243;28;19925;-52
2023/02/22 06:38:29;;;;;;;;;;;;;;;9.43;100.00;99324.38;4975990;28;19921;-50
2023/02/22 06:40:54;;;;;;;;;;;;;;;9.79;100.00;99342.44;4985894;28;20383;-52
2023/02/22 06:43:20;;;;;;;;;;;;;;;9.77;100.00;99332.19;4981427;28;19921;-52
2023/02/22 06:45:45;;;;;;;;;;;;;;;9.16;100.00;99311.25;4982556;28;19921;-52
2023/02/22 06:48:11;;;;;;;;;;;;;;;9.72;100.00;99339.16;4980670;28;19961;-52
2023/02/22 06:50:36;;;;;;;;;;;;;;;9.36;100.00;99317.69;4983476;28;20141;-54
2023/02/22 06:53:01;;;;;;;;;;;;;;;9.51;100.00;99337.06;4985998;28;19944;-51
2023/02/22 06:55:27;;;;;;;;;;;;;;;9.99;100.00;99353.09;4980810;28;20242;-54
2023/02/22 06:57:52;;;;;;;;;;;;;;;9.68;100.00;99328.97;4981761;28;19948;-51
2023/02/22 07:00:18;;;;;;;;;;;;;;;9.87;100.00;99327.66;4981526;28;20332;-52
2023/02/22 07:02:44;;;;;;;;;;;;;;;10.09;100.00;99334.88;4986606;28;20786;-51
2023/02/22 07:05:11;;;;;;;;;;;;;;;9.70;100.00;99302.34;4980772;28;19918;-50
2023/02/22 07:07:37;;;;;;;;;;;;;;;10.42;100.00;99322.88;4978626;28;19926;-51
2023/02/22 07:10:03;;;;;;;;;;;;;;;10.28;100.00;99315.50;4981165;28;20041;-52
2023/02/22 07:12:28;;;;;;;;;;;;;;;10.62;100.00;99300.03;4988476;28;19960;-50
2023/02/22 07:14:54;;;;;;;;;;;;;;;10.16;100.00;99279.78;5020284;28;19921;-51
2023/02/22 07:17:21;;;;;;;;;;;;;;;10.22;100.00;99284.78;4983777;28;20202;-50
2023/02/22 07:19:46;;;;;;;;;;;;;;;10.49;100.00;99292.66;4988664;28;19921;-50
2023/02/22 07:22:11;;;;;;;;;;;;;;;10.36;100.00;99274.16;4991772;28;19921;-50
2023/02/22 07:24:37;;;;;;;;;;;;;;;10.40;100.00;99278.31;4986795;28;19992;-53
2023/02/22 07:27:02;;;;;;;;;;;;;;;11.19;100.00;99290.66;4988007;28;20393;-53
2023/02/22 07:29:27;;;;;;;;;;;;;;;10.37;100.00;99232.91;4980882;28;20347;-53
2023/02/22 07:31:52;;;;;;;;;;;;;;;10.66;100.00;99238.97;4991451;28;20035;-52
2023/02/22 07:34:17;;;;;;;;;;;;;;;10.77;100.00;99236.94;4985440;28;19922;-51
2023/02/22 07:36:43;;;;;;;;;;;;;;;10.93;100.00;99233.91;4979240;28;19922;-51
2023/02/22 07:39:08;;;;;;;;;;;;;;;11.04;100.00;99249.91;4981485;28;20012;-54
2023/02/22 07:41:33;;;;;;;;;;;;;;;10.52;100.00;99233.38;4989680;28;20088;-51
2023/02/22 07:43:58;;;;;;;;;;;;;;;10.21;100.00;99226.44;4981629;28;19918;-53
2023/02/22 07:46:24;;;;;;;;;;;;;;;10.95;100.00;99260.47;4984027;28;19983;-52
2023/02/22 07:48:49;;;;;;;;;;;;;;;11.05;100.00;99236.94;4987213;28;19921;-53
2023/02/22 07:51:15;;;;;;;;;;;;;;;10.62;100.00;99219.34;4984594;28;20000;-51
2023/02/22 07:53:40;;;;;;;;;;;;;;;11.14;100.00;99243.56;4979279;28;20295;-51
2023/02/22 07:56:07;;;;;;;;;;;;;;;11.02;100.00;99220.75;4987162;28;19966;-52
2023/02/22 07:58:32;;;;;;;;;;;;;;;11.46;100.00;99228.84;4981503;28;20037;-52
2023/02/22 08:00:58;;;;;;;;;;;;;;;10.81;100.00;99212.78;4979830;28;20566;-51
2023/02/22 08:03:24;;;;;;;;;;;;;;;10.82;100.00;99214.44;4981942;28;19917;-51
2023/02/22 08:05:53;;;;;;;;;;;;;;;11.19;100.00;99233.94;4989267;28;19918;-51
2023/02/22 08:08:18;;;;;;;;;;;;;;;11.20;100.00;99233.09;4979114;28;19930;-51
2023/02/22 08:10:44;;;;;;;;;;;;;;;11.67;100.00;99215.22;4982266;28;19921;-52
2023/02/22 08:13:09;;;;;;;;;;;;;;;11.70;100.00;99186.78;4981139;28;20395;-53
2023/02/22 08:15:39;;;;;;;;;;;;;;;12.06;100.00;99180.41;4982027;28;19935;-53
2023/02/22 08:18:07;;;;;;;;;;;;;;;11.66;100.00;99141.31;4982370;28;19992;-52
2023/02/22 08:20:33;;;;;;;;;;;;;;;12.30;100.00;99138.22;4983498;28;19921;-51
2023/02/22 08:22:58;;;;;;;;;;;;;;;12.14;100.00;99119.88;4980348;28;19918;-53
2023/02/22 08:25:24;;;;;;;;;;;;;;;12.73;100.00;99117.69;4979943;28;20045;-54
2023/02/22 08:27:49;;;;;;;;;;;;;;;12.28;100.00;99077.22;4983198;28;19926;-52
2023/02/22 08:30:19;;;;;;;;;;;;;;;11.86;100.00;99070.09;4983824;28;19968;-50
2023/02/22 08:32:45;;;;;;;;;;;;;;;11.98;100.00;99069.72;4980186;28;19922;-53
2023/02/22 08:35:12;;;;;;;;;;;;;;;11.84;100.00;99061.59;5019822;28;19914;-51
2023/02/22 08:37:40;;;;;;;;;;;;;;;12.00;100.00;99073.06;5019486;28;19921;-53
2023/02/22 08:40:05;;;;;;;;;;;;;;;11.95;100.00;99084.44;4982214;28;19921;-53
2023/02/22 08:42:31;;;;;;;;;;;;;;;13.31;100.00;99104.19;4981912;28;19918;-52
2023/02/22 08:44:56;;;;;;;;;;;;;;;13.12;100.00;99067.88;4978720;28;19953;-53
2023/02/22 08:47:21;;;;;;;;;;;;;;;13.37;100.00;99045.28;4979262;28;19976;-53
2023/02/22 08:49:46;;;;;;;;;;;;;;;12.86;100.00;99028.41;4980711;28;19953;-52
2023/02/22 08:52:12;;;;;;;;;;;;;;;12.68;100.00;98999.00;4985994;28;20406;-54
2023/02/22 08:54:37;;;;;;;;;;;;;;;13.74;100.00;99010.03;4983691;28;19957;-53
2023/02/22 08:57:02;;;;;;;;;;;;;;;12.93;100.00;98983.34;4979563;28;19917;-52
2023/02/22 08:59:27;;;;;;;;;;;;;;;12.70;100.00;98971.38;4985241;28;19921;-52
2023/02/22 09:01:53;;;;;;;;;;;;;;;13.97;100.00;98977.91;4979742;28;19924;-52
2023/02/22 09:04:18;;;;;;;;;;;;;;;13.96;100.00;98962.47;4980840;28;19925;-53
2023/02/22 09:06:47;;;;;;;;;;;;;;;13.58;100.00;98945.19;4978000;28;19968;-54
2023/02/22 09:09:12;;;;;;;;;;;;;;;13.81;100.00;98941.53;4979078;28;19922;-51
2023/02/22 09:11:37;;;;;;;;;;;;;;;13.96;100.00;98923.63;4979328;28;20024;-54
2023/02/22 09:14:02;;;;;;;;;;;;;;;14.16;100.00;98910.59;4982564;28;20393;-54
2023/02/22 09:16:28;;;;;;;;;;;;;;;14.44;100.00;98878.13;4977716;28;19922;-54
2023/02/22 09:18:53;;;;;;;;;;;;;;;14.78;100.00;98861.75;4983123;28;19921;-54
2023/02/22 09:21:18;;;;;;;;;;;;;;;14.69;100.00;98861.38;4981298;28;20004;-53
2023/02/22 09:23:45;;;;;;;;;;;;;;;14.66;100.00;98830.44;4986141;28;20013;-54
2023/02/22 09:26:10;;;;;;;;;;;;;;;14.93;100.00;98829.00;4983863;28;19928;-52
2023/02/22 09:28:35;;;;;;;;;;;;;;;15.03;100.00;98806.03;4979353;28;20306;-54
2023/02/22 09:31:01;;;;;;;;;;;;;;;15.22;100.00;98790.28;4978830;28;20020;-54
2023/02/22 09:33:26;;;;;;;;;;;;;;;15.06;100.00;98788.53;4980068;28;20335;-54
2023/02/22 09:35:51;;;;;;;;;;;;;;;15.04;100.00;98784.34;4985011;28;19961;-53
2023/02/22 09:38:24;;;;;;;;;;;;;;;14.55;100.00;98777.41;4977271;28;19953;-52
2023/02/22 09:41:13;;;;;;;;;;;;;;;15.12;100.00;98760.56;4978452;28;19918;-54
2023/02/22 09:43:39;;;;;;;;;;;;;;;16.02;100.00;98752.09;4987553;28;19921;-55
2023/02/22 09:46:19;;;;;;;;;;;;;;;15.89;100.00;98724.22;4980979;28;20185;-55
2023/02/22 09:49:04;;;;;;;;;;;;;;;15.62;100.00;98707.59;5018906;28;19917;-55
2023/02/22 09:51:51;;;;;;;;;;;;;;;15.18;100.00;98706.59;5017248;28;19929;-55
2023/02/22 09:54:35;;;;;;;;;;;;;;;15.65;100.00;98703.09;5021084;28;19913;-54
2023/02/22 09:57:02;;;;;;;;;;;;;;;14.47;100.00;98701.78;4998038;28;20473;-54
2023/02/22 09:59:33;;;;;;;;;;;;;;;15.97;100.00;98722.97;5016957;28;19929;-56
2023/02/22 10:02:01;;;;;;;;;;;;;;;15.62;100.00;98684.25;5020883;28;20489;-56
2023/02/22 10:04:40;;;;;;;;;;;;;;;16.14;100.00;98683.81;4981143;28;20039;-55
2023/02/22 10:07:17;;;;;;;;;;;;;;;15.74;100.00;98660.22;5015534;28;20547;-55
2023/02/22 10:09:42;;;;;;;;;;;;;;;15.85;100.00;98657.84;5020094;28;19918;-55
2023/02/22 10:12:13;;;;;;;;;;;;;;;15.22;100.00;98645.84;5019540;28;19932;-56
2023/02/22 10:14:51;;;;;;;;;;;;;;;16.54;100.00;98652.81;5019199;28;20320;-55
2023/02/22 10:17:16;;;;;;;;;;;;;;;16.01;100.00;98638.72;4977336;28;20010;-55
2023/02/22 10:20:00;;;;;;;;;;;;;;;15.75;100.00;98629.91;4978087;28;20465;-56
2023/02/22 10:22:30;;;;;;;;;;;;;;;16.51;100.00;98621.78;5011804;28;20071;-56
2023/02/22 10:24:55;;;;;;;;;;;;;;;16.54;100.00;98602.59;5014393;28;20004;-55
2023/02/22 10:27:21;;;;;;;;;;;;;;;17.11;100.00;98599.81;4988575;28;20395;-56
2023/02/22 10:29:51;;;;;;;;;;;;;;;16.43;100.00;98585.06;4983973;28;20535;-56
2023/02/22 10:32:25;;;;;;;;;;;;;;;16.76;100.00;98583.84;5001306;28;19918;-55
2023/02/22 10:34:50;;;;;;;;;;;;;;;15.93;100.00;98581.22;5024190;28;19918;-56
2023/02/22 10:37:18;;;;;;;;;;;;;;;17.08;100.00;98587.84;5002957;28;19971;-56
2023/02/22 10:39:43;;;;;;;;;;;;;;;17.32;100.00;98561.13;5018338;28;19918;-56
2023/02/22 10:42:09;;;;;;;;;;;;;;;17.04;100.00;98565.56;5020960;28;19918;-55
2023/02/22 10:44:34;;;;;;;;;;;;;;;17.81;100.00;98556.97;5018700;28;19967;-55
2023/02/22 10:47:01;;;;;;;;;;;;;;;17.71;100.00;98538.56;4980844;28;19922;-57
2023/02/22 10:49:26;;;;;;;;;;;;;;;17.58;100.00;98541.16;4977529;28;19960;-56
2023/02/22 10:52:01;;;;;;;;;;;;;;;17.55;100.00;98531.78;5023312;28;20420;-56
2023/02/22 10:54:33;;;;;;;;;;;;;;;17.58;100.00;98537.72;4988036;28;19917;-55
2023/02/22 10:56:59;;;;;;;;;;;;;;;17.52;100.00;98524.19;5012061;28;20777;-56
2023/02/22 10:59:25;;;;;;;;;;;;;;;17.16;100.00;98521.47;5007266;28;19914;-56
2023/02/22 11:01:51;;;;;;;;;;;;;;;17.33;100.00;98521.16;5014707;28;20267;-56
2023/02/22 11:04:16;;;;;;;;;;;;;;;18.17;100.00;98514.53;4978082;28;19925;-56
2023/02/22 11:06:43;;;;;;;;;;;;;;;17.71;100.00;98507.28;4976613;28;19926;-56
2023/02/22 11:09:12;;;;;;;;;;;;;;;16.73;100.00;98523.31;4980641;28;19925;-55
2023/02/22 11:11:39;;;;;;;;;;;;;;;17.13;100.00;98549.34;4983086;28;19984;-57
2023/02/22 11:14:05;;;;;;;;;;;;;;;17.17;100.00;98526.53;4980210;28;19922;-56
2023/02/22 11:16:37;;;;;;;;;;;;;;;17.48;100.00;98517.50;5013964;28;19918;-56
2023/02/22 11:19:21;;;;;;;;;;;;;;;17.22;100.00;98515.84;4977578;28;19917;-56
2023/02/22 11:21:50;;;;;;;;;;;;;;;17.18;100.00;98498.78;4975589;28;19918;-56
2023/02/22 11:24:15;;;;;;;;;;;;;;;17.52;100.00;98490.34;4981603;28;19965;-56
2023/02/22 11:26:48;;;;;;;;;;;;;;;17.58;100.00;98472.63;4997445;28;20473;-56
2023/02/22 11:29:19;;;;;;;;;;;;;;;17.02;100.00;98478.97;4986337;28;19917;-56
2023/02/22 11:31:44;;;;;;;;;;;;;;;17.20;100.00;98484.72;4981715;28;19929;-56
2023/02/22 11:34:24;;;;;;;;;;;;;;;17.31;100.00;98474.44;4982240;28;19918;-56
2023/02/22 11:36:50;;;;;;;;;;;;;;;17.04;100.00;98471.91;4980952;28;20023;-56
2023/02/22 11:39:21;;;;;;;;;;;;;;;18.09;100.00;98456.91;4981788;28;19956;-56
2023/02/22 11:41:48;;;;;;;;;;;;;;;17.44;100.00;98456.19;4981734;28;19918;-56
2023/02/22 11:44:20;;;;;;;;;;;;;;;17.54;100.00;98443.38;4980725;28;19995;-56
2023/02/22 11:46:45;;;;;;;;;;;;;;;18.06;100.00;98439.72;4978189;28;19929;-56
2023/02/22 11:49:11;;;;;;;;;;;;;;;17.38;100.00;98433.19;5013646;28;19965;-56
2023/02/22 11:51:36;;;;;;;;;;;;;;;17.52;100.00;98435.66;4981696;28;19925;-56
2023/02/22 11:54:27;;;;;;;;;;;;;;;18.44;100.00;98417.03;4980759;28;20453;-56
2023/02/22 11:56:54;;;;;;;;;;;;;;;18.28;100.00;98412.94;4983695;28;20402;-57
2023/02/22 11:59:26;;;;;;;;;;;;;;;18.14;100.00;98402.69;4980159;28;20955;-57
2023/02/22 12:02:18;;;;;;;;;;;;;;;18.26;100.00;98407.00;4984545;28;19965;-57
2023/02/22 12:04:46;;;;;;;;;;;;;;;19.79;100.00;98393.69;4986486;28;19926;-57
2023/02/22 12:07:31;;;;;;;;;;;;;;;19.37;100.00;98388.28;4978161;28;19930;-57
2023/02/22 12:10:06;;;;;;;;;;;;;;;18.88;100.00;98394.63;4986236;28;19925;-57
2023/02/22 12:12:37;;;;;;;;;;;;;;;19.61;100.00;98382.88;4980883;28;19925;-57
2023/02/22 12:15:15;;;;;;;;;;;;;;;18.90;100.00;98383.13;4980904;28;20820;-57
2023/02/22 12:17:51;;;;;;;;;;;;;;;19.63;100.00;98389.66;4979615;28;19917;-57
2023/02/22 12:20:21;;;;;;;;;;;;;;;20.04;100.00;98385.53;5025723;28;19972;-57
2023/02/22 12:23:08;;;;;;;;;;;;;;;19.37;100.00;98396.94;4981418;28;19965;-58
2023/02/22 12:25:34;;;;;;;;;;;;;;;18.95;100.00;98391.47;4987122;28;19921;-57
2023/02/22 12:28:02;;;;;;;;;;;;;;;19.61;100.00;98393.34;5015105;28;19995;-57
2023/02/22 12:30:35;;;;;;;;;;;;;;;19.05;100.00;98409.03;5021903;28;20015;-58
2023/02/22 12:33:05;;;;;;;;;;;;;;;19.23;100.00;98394.56;4979320;28;19921;-58
2023/02/22 12:35:34;;;;;;;;;;;;;;;19.74;100.00;98403.69;5014897;28;19918;-57
2023/02/22 12:38:03;;;;;;;;;;;;;;;20.24;100.00;98381.31;4978717;28;20280;-58
2023/02/22 12:40:47;;;;;;;;;;;;;;;19.61;100.00;98388.09;4980645;28;19925;-58
2023/02/22 12:43:12;;;;;;;;;;;;;;;20.19;100.00;98393.13;4980105;28;19921;-58